Time;durP1;ratioP1;P1;durP2;ratioP2;P2;SDS_P1;SDS_P2;PMS_P1;PMS_P2;Temp;Humidity;BMP_temperature;BMP_pressure;BME280_temperature;BME280_humidity;BME280_pressure;Samples;Min_cycle;Max_cycle;Signal;HPM_P1;HPM_P2
2023/05/24 00:02:05;;;;;;;63.58;45.92;;;;;;;19.60;58.45;93363.47;4975595;28;20033;-89
2023/05/24 00:04:31;;;;;;;52.85;39.70;;;;;;;19.58;58.19;93368.72;4993799;28;20049;-89
2023/05/24 00:06:57;;;;;;;61.10;43.10;;;;;;;19.59;58.11;93364.72;4983745;28;20539;-90
2023/05/24 00:09:22;;;;;;;64.45;45.08;;;;;;;19.59;58.31;93367.47;4979885;28;20045;-90
2023/05/24 00:11:47;;;;;;;61.17;44.75;;;;;;;19.57;58.39;93365.25;4980307;28;20037;-90
2023/05/24 00:14:13;;;;;;;61.67;44.60;;;;;;;19.57;58.42;93368.00;4979939;28;20033;-90
2023/05/24 00:16:38;;;;;;;59.85;40.72;;;;;;;19.59;58.29;93356.50;5012431;28;20049;-90
2023/05/24 00:19:04;;;;;;;56.88;40.05;;;;;;;19.59;58.30;93370.22;4980446;28;20026;-90
2023/05/24 00:21:30;;;;;;;57.13;40.70;;;;;;;19.58;58.24;93361.25;4995661;28;20045;-90
2023/05/24 00:23:56;;;;;;;54.03;38.15;;;;;;;19.57;58.28;93368.00;4987275;28;20508;-90
2023/05/24 00:26:21;;;;;;;62.13;42.80;;;;;;;19.59;58.21;93370.97;5021470;28;20045;-90
2023/05/24 00:28:47;;;;;;;58.47;42.40;;;;;;;19.57;58.34;93370.00;4999764;28;20039;-90
2023/05/24 00:31:12;;;;;;;60.78;42.40;;;;;;;19.56;58.38;93372.00;5011481;28;20045;-90
2023/05/24 00:33:38;;;;;;;61.15;44.47;;;;;;;19.55;58.27;93370.50;4996451;28;20038;-90
2023/05/24 00:36:03;;;;;;;43.95;34.95;;;;;;;19.57;57.98;93357.03;4974938;28;20553;-89
2023/05/24 00:38:29;;;;;;;59.20;42.30;;;;;;;19.56;58.02;93363.78;4975418;28;20855;-90
2023/05/24 00:40:58;;;;;;;55.65;41.28;;;;;;;19.57;58.22;93361.78;4957309;28;20178;-90
2023/05/24 00:43:24;;;;;;;51.95;36.92;;;;;;;19.57;58.19;93354.28;4954432;28;20090;-89
2023/05/24 00:46:09;;;;;;;55.72;40.03;;;;;;;19.57;58.21;93357.03;4974604;28;20523;-89
2023/05/24 00:48:34;;;;;;;49.20;37.03;;;;;;;19.56;58.16;93357.53;4990885;28;20517;-89
2023/05/24 00:51:00;;;;;;;62.80;38.95;;;;;;;19.56;57.79;93352.06;4974341;28;20052;-89
2023/05/24 00:53:25;;;;;;;57.05;39.92;;;;;;;19.55;58.17;93350.56;4957440;28;20050;-90
2023/05/24 00:55:51;;;;;;;49.55;37.53;;;;;;;19.52;58.39;93358.56;4993610;28;20053;-90
2023/05/24 00:58:16;;;;;;;56.38;40.90;;;;;;;19.52;58.29;93347.59;4974875;28;20046;-90
2023/05/24 01:00:42;;;;;;;51.90;39.15;;;;;;;19.52;58.05;93350.34;4974700;28;20498;-90
2023/05/24 01:03:07;;;;;;;54.67;39.97;;;;;;;19.55;58.22;93361.53;4958165;28;20038;-89
2023/05/24 01:05:32;;;;;;;50.13;37.35;;;;;;;19.54;58.02;93349.84;4958134;28;20037;-90
2023/05/24 01:08:08;;;;;;;54.15;37.95;;;;;;;19.54;58.07;93354.56;4976832;28;20048;-90
2023/05/24 01:10:39;;;;;;;49.78;36.65;;;;;;;19.56;57.99;93361.03;5011393;28;20365;-89
2023/05/24 01:13:23;;;;;;;;;;;;;;;19.58;57.93;93366.00;4995800;28;20056;-90
2023/05/24 01:15:57;;;;;;;51.65;37.90;;;;;;;19.53;58.16;93362.06;5026565;28;19959;-90
2023/05/24 01:18:33;;;;;;;53.22;34.75;;;;;;;19.53;58.17;93356.56;5024171;28;20046;-90
2023/05/24 01:21:12;;;;;;;52.95;37.80;;;;;;;19.52;58.26;93361.31;4996872;28;20041;-90
2023/05/24 01:23:46;;;;;;;49.17;36.40;;;;;;;19.52;57.98;93341.38;5013881;28;20072;-90
2023/05/24 01:26:37;;;;;;;49.45;35.70;;;;;;;19.51;57.96;93357.09;4992483;28;20087;-90
2023/05/24 01:29:03;;;;;;;48.80;35.50;;;;;;;19.49;58.15;93369.81;4981086;28;20034;-90
2023/05/24 01:31:29;;;;;;;48.13;34.70;;;;;;;19.50;58.05;93363.84;4994876;28;20400;-90
2023/05/24 01:33:54;;;;;;;50.83;37.78;;;;;;;19.50;58.16;93366.56;5027882;28;20041;-89
2023/05/24 01:36:20;;;;;;;45.60;32.90;;;;;;;19.53;57.91;93367.53;4995014;28;20107;-90
2023/05/24 01:38:45;;;;;;;46.50;34.72;;;;;;;19.50;58.07;93372.06;4979467;28;20516;-90
2023/05/24 01:41:18;;;;;;;51.80;36.97;;;;;;;19.51;58.04;93365.31;4984136;28;20472;-90
2023/05/24 01:43:47;;;;;;;44.60;35.42;;;;;;;19.50;58.13;93352.13;4992697;28;20060;-90
2023/05/24 01:46:33;;;;;;;44.90;33.97;;;;;;;19.51;57.77;93365.31;5002644;28;20073;-91
2023/05/24 01:49:20;;;;;;;46.20;33.60;;;;;;;19.51;58.15;93364.56;4996168;28;20040;-90
2023/05/24 01:52:05;;;;;;;45.58;34.17;;;;;;;19.51;57.99;93359.09;4994697;28;20049;-90
2023/05/24 01:54:32;;;;;;;46.40;33.00;;;;;;;19.49;58.01;93350.63;4994192;28;20048;-90
2023/05/24 01:56:57;;;;;;;46.67;32.95;;;;;;;19.50;58.03;93363.84;4988204;28;20061;-90
2023/05/24 01:59:23;;;;;;;44.13;32.22;;;;;;;19.49;58.10;93362.31;4978312;28;20503;-90
2023/05/24 02:01:49;;;;;;;44.47;31.80;;;;;;;19.49;57.92;93362.31;4989951;28;20373;-90
2023/05/24 02:04:15;;;;;;;41.40;31.52;;;;;;;19.48;57.94;93362.88;4975676;28;20060;-90
2023/05/24 02:06:40;;;;;;;45.58;32.85;;;;;;;19.48;58.05;93369.09;4966405;28;20037;-90
2023/05/24 02:09:06;;;;;;;47.70;35.55;;;;;;;19.50;57.93;93355.63;4991320;28;20397;-89
2023/05/24 02:11:31;;;;;;;43.08;30.63;;;;;;;19.50;57.97;93350.13;4964923;28;20581;-90
2023/05/24 02:13:56;;;;;;;42.55;30.83;;;;;;;19.49;57.86;93361.59;4994275;28;20037;-90
2023/05/24 02:16:25;;;;;;;40.55;31.13;;;;;;;19.49;57.76;93358.84;4990186;28;20049;-90
2023/05/24 02:18:50;;;;;;;46.97;34.05;;;;;;;19.46;57.73;93357.91;4976670;28;20038;-90
2023/05/24 02:21:16;;;;;;;44.63;32.85;;;;;;;19.48;58.06;93360.13;4960170;28;20488;-90
2023/05/24 02:23:41;;;;;;;39.38;30.67;;;;;;;19.46;57.97;93360.66;4982286;28;20048;-90
2023/05/24 02:26:10;;;;;;;39.58;32.15;;;;;;;19.47;57.90;93358.66;5009843;28;20339;-90
2023/05/24 02:28:35;;;;;;;45.40;33.90;;;;;;;19.46;57.92;93368.88;4994072;28;20040;-90
2023/05/24 02:31:01;;;;;;;42.72;30.65;;;;;;;19.46;57.60;93357.91;4974356;28;20409;-90
2023/05/24 02:33:28;;;;;;;43.70;32.28;;;;;;;19.47;57.63;93369.63;4990190;28;20052;-90
2023/05/24 02:35:57;;;;;;;45.67;32.47;;;;;;;19.46;57.99;93366.13;4972293;28;20038;-91
2023/05/24 02:38:22;;;;;;;40.58;31.27;;;;;;;19.47;57.62;93369.63;4975612;28;20424;-90
2023/05/24 02:40:48;;;;;;;38.88;30.08;;;;;;;19.46;57.92;93376.34;4974073;28;20501;-90
2023/05/24 02:43:13;;;;;;;39.47;29.13;;;;;;;19.46;57.81;93371.63;4990243;28;20087;-90
2023/05/24 02:45:39;;;;;;;46.33;31.25;;;;;;;19.47;57.63;93366.88;4990294;28;20084;-90
2023/05/24 02:48:04;;;;;;;41.20;29.73;;;;;;;19.46;57.79;93373.63;4973696;28;20053;-90
2023/05/24 02:50:29;;;;;;;39.85;28.23;;;;;;;19.47;58.19;93366.88;4974517;28;20046;-90
2023/05/24 02:52:55;;;;;;;41.78;30.58;;;;;;;19.45;57.41;93370.13;4973955;28;20049;-91
2023/05/24 02:55:21;;;;;;;41.17;29.88;;;;;;;19.44;57.64;93376.88;4973064;28;20429;-90
2023/05/24 02:57:46;;;;;;;38.40;29.20;;;;;;;19.45;57.92;93378.34;4990602;28;20034;-90
2023/05/24 03:00:13;;;;;;;36.78;27.98;;;;;;;19.46;57.69;93373.63;4990272;28;20061;-90
2023/05/24 03:02:39;;;;;;;37.05;28.33;;;;;;;19.47;57.60;93372.34;4974352;28;20453;-90
2023/05/24 03:05:05;;;;;;;37.88;27.27;;;;;;;19.44;57.74;93371.38;4989740;28;20373;-91
2023/05/24 03:07:31;;;;;;;38.20;28.45;;;;;;;19.44;57.58;93379.63;4989987;28;20038;-90
2023/05/24 03:09:56;;;;;;;39.33;29.17;;;;;;;19.44;58.03;93378.88;4974224;28;20045;-90
2023/05/24 03:12:21;;;;;;;42.42;30.10;;;;;;;19.44;57.75;93368.66;4989945;28;20045;-90
2023/05/24 03:14:47;;;;;;;39.72;27.38;;;;;;;19.45;57.52;93372.13;4973462;28;20038;-90
2023/05/24 03:17:12;;;;;;;35.72;27.77;;;;;;;19.44;58.15;93371.38;4972412;28;20104;-90
2023/05/24 03:19:38;;;;;;;36.45;26.90;;;;;;;19.44;57.68;93376.13;4974010;28;20108;-90
2023/05/24 03:22:03;;;;;;;39.35;27.52;;;;;;;19.44;57.44;93376.88;4973240;28;20049;-89
2023/05/24 03:24:29;;;;;;;36.53;27.65;;;;;;;19.44;57.77;93374.13;4973173;28;20041;-90
2023/05/24 03:26:54;;;;;;;34.45;26.27;;;;;;;19.46;57.63;93379.09;4973426;28;20485;-90
2023/05/24 03:29:19;;;;;;;41.70;28.95;;;;;;;19.52;57.42;93380.50;4972716;28;20038;-90
2023/05/24 03:31:45;;;;;;;35.22;26.15;;;;;;;19.49;57.12;93378.03;4988974;28;20042;-90
2023/05/24 03:34:10;;;;;;;42.53;30.15;;;;;;;19.52;57.76;93380.50;4992326;28;20334;-89
2023/05/24 03:36:38;;;;;;;55.47;38.15;;;;;;;19.61;57.00;93375.94;5008073;28;20042;-94
2023/05/24 03:39:04;;;;;;;147.38;102.55;;;;;;;19.67;57.42;93380.09;4984469;28;20107;-92
2023/05/24 03:41:30;;;;;;;86.78;65.55;;;;;;;19.63;57.35;93390.59;4968711;28;20038;-91
2023/05/24 03:43:57;;;;;;;56.13;36.25;;;;;;;19.68;57.13;93375.34;5010251;28;20126;-91
2023/05/24 03:46:25;;;;;;;37.70;28.73;;;;;;;19.63;57.36;93390.59;4972370;28;20128;-91
2023/05/24 03:48:50;;;;;;;51.92;29.85;;;;;;;19.67;57.13;93387.56;4965598;28;20132;-91
2023/05/24 03:51:16;;;;;;;44.40;27.73;;;;;;;19.57;57.42;93391.94;4989764;28;20050;-91
2023/05/24 03:53:41;;;;;;;43.38;29.80;;;;;;;19.59;57.39;93400.38;5012786;28;20041;-92
2023/05/24 03:56:07;;;;;;;86.47;34.08;;;;;;;19.58;57.40;93391.41;4992869;28;20199;-94
2023/05/24 03:58:32;;;;;;;137.30;43.80;;;;;;;19.56;57.40;93388.44;4996062;28;20042;-94
2023/05/24 04:01:01;;;;;;;110.88;38.90;;;;;;;19.52;57.58;93391.47;4991591;28;20072;-93
2023/05/24 04:03:28;;;;;;;83.63;42.90;;;;;;;19.52;55.57;93396.22;5015935;28;20056;-91
2023/05/24 04:05:53;;;;;;;64.50;36.42;;;;;;;19.43;55.11;93396.56;4977849;28;20030;-93
2023/05/24 04:08:19;;;;;;;95.90;36.22;;;;;;;19.28;55.19;93398.97;4983660;28;20038;-90
2023/05/24 04:10:45;;;;;;;82.35;31.77;;;;;;;19.21;54.86;93389.38;4956302;28;20798;-89
2023/05/24 04:13:10;;;;;;;182.80;48.55;;;;;;;19.26;54.78;93402.28;4968695;28;20069;-93
2023/05/24 04:15:39;;;;;;;272.85;72.10;;;;;;;19.25;55.13;93402.78;4975811;28;20038;-90
2023/05/24 04:18:05;;;;;;;347.48;92.22;;;;;;;19.31;54.97;93415.16;4991217;28;20046;-88
2023/05/24 04:20:31;;;;;;;236.88;74.70;;;;;;;19.33;54.91;93418.13;4970861;28;20042;-90
2023/05/24 04:22:57;;;;;;;308.23;94.88;;;;;;;19.33;54.76;93415.38;4981437;28;20068;-91
2023/05/24 04:25:25;;;;;;;420.38;167.55;;;;;;;19.40;54.93;93427.75;4966429;28;20046;-91
2023/05/24 04:27:51;;;;;;;489.30;192.10;;;;;;;19.34;55.20;93421.59;4961780;28;20090;-91
2023/05/24 04:30:16;;;;;;;97.30;47.45;;;;;;;19.24;53.30;93429.44;4937289;28;20054;-86
2023/05/24 04:32:45;;;;;;;84.05;39.10;;;;;;;19.06;53.09;93441.09;4972473;28;20161;-89
2023/05/24 04:35:10;;;;;;;58.20;23.27;;;;;;;18.93;52.46;93438.25;4938323;28;20039;-89
2023/05/24 04:37:36;;;;;;;56.42;25.33;;;;;;;18.80;52.17;93436.13;4938408;28;20154;-89
2023/05/24 04:40:03;;;;;;;30.23;16.58;;;;;;;18.74;52.05;93435.44;4939467;28;20053;-91
2023/05/24 04:42:30;;;;;;;22.40;13.00;;;;;;;18.56;52.11;93431.34;4938043;28;20088;-91
2023/05/24 04:44:56;;;;;;;27.95;12.60;;;;;;;18.53;52.52;93431.63;4962719;28;20439;-91
2023/05/24 04:47:23;;;;;;;25.05;11.57;;;;;;;18.39;52.09;93430.75;4953939;28;20046;-91
2023/05/24 04:49:48;;;;;;;29.45;13.93;;;;;;;18.37;52.16;93430.50;4957864;28;20051;-91
2023/05/24 04:52:15;;;;;;;22.10;10.57;;;;;;;18.27;52.24;93426.59;4941482;28;21810;-91
2023/05/24 04:54:40;;;;;;;23.38;8.75;;;;;;;18.15;52.53;93421.22;4966063;28;20470;-91
2023/05/24 04:57:06;;;;;;;28.58;15.32;;;;;;;18.09;52.43;93430.72;4954025;28;20145;-88
2023/05/24 04:59:31;;;;;;;40.38;19.75;;;;;;;18.20;52.80;93430.63;4994991;28;20042;-92
2023/05/24 05:01:56;;;;;;;48.13;29.75;;;;;;;18.21;52.08;93429.38;4979801;28;20042;-90
2023/05/24 05:04:22;;;;;;;100.03;54.90;;;;;;;18.21;52.21;93436.84;4992659;28;20073;-89
2023/05/24 05:06:47;;;;;;;52.03;31.13;;;;;;;18.23;52.39;93426.88;5002932;28;20050;-90
2023/05/24 05:09:14;;;;;;;74.13;45.35;;;;;;;18.22;52.13;93430.84;4973431;28;20039;-90
2023/05/24 05:11:40;;;;;;;114.38;68.45;;;;;;;18.20;52.29;93429.88;4982229;28;20048;-92
2023/05/24 05:14:08;;;;;;;91.53;54.00;;;;;;;18.17;52.23;93425.44;4974710;28;20898;-92
2023/05/24 05:16:34;;;;;;;77.95;31.55;;;;;;;18.23;51.87;93421.41;4957555;28;20045;-91
2023/05/24 05:19:00;;;;;;;40.88;16.90;;;;;;;18.15;52.10;93429.44;4956085;28;20042;-91
2023/05/24 05:21:27;;;;;;;20.92;11.13;;;;;;;18.02;52.15;93433.97;4950267;28;20042;-91
2023/05/24 05:23:53;;;;;;;47.03;16.60;;;;;;;17.90;52.35;93429.84;4957782;28;20041;-87
2023/05/24 05:26:19;;;;;;;72.60;25.08;;;;;;;17.93;52.52;93437.03;4962056;28;20440;-88
2023/05/24 05:28:44;;;;;;;61.67;21.48;;;;;;;17.94;52.47;93444.75;4975175;28;20133;-89
2023/05/24 05:31:10;;;;;;;102.38;25.13;;;;;;;18.00;52.31;93442.69;4962425;28;20042;-92
2023/05/24 05:33:35;;;;;;;93.43;23.58;;;;;;;18.06;52.18;93434.47;4959555;28;20070;-93
2023/05/24 05:36:02;;;;;;;131.43;28.90;;;;;;;17.97;52.18;93445.72;4958578;28;20061;-90
2023/05/24 05:38:27;;;;;;;106.78;27.08;;;;;;;17.93;52.53;93445.25;4954513;28;20084;-89
2023/05/24 05:40:53;;;;;;;124.50;25.40;;;;;;;17.92;52.34;93444.50;4954982;28;20585;-87
2023/05/24 05:43:18;;;;;;;80.22;21.10;;;;;;;17.90;52.51;93451.72;4953710;28;20046;-87
2023/05/24 05:45:44;;;;;;;62.60;19.48;;;;;;;17.93;52.03;93450.72;4987569;28;20044;-86
2023/05/24 05:48:09;;;;;;;65.03;18.52;;;;;;;17.95;52.26;93450.97;4983106;28;20107;-90
2023/05/24 05:50:36;;;;;;;41.95;15.40;;;;;;;18.01;52.00;93452.38;4987584;28;20046;-91
2023/05/24 05:53:01;;;;;;;27.83;12.00;;;;;;;17.90;52.25;93444.28;4976225;28;20045;-88
2023/05/24 05:55:27;;;;;;;45.83;14.93;;;;;;;17.93;52.14;93440.53;4976331;28;20045;-89
2023/05/24 05:57:52;;;;;;;115.07;77.70;;;;;;;17.86;52.59;93443.03;4978081;28;20030;-89
2023/05/24 06:00:18;;;;;;;78.15;43.15;;;;;;;17.87;52.33;93450.75;4978834;28;20042;-88
2023/05/24 06:02:44;;;;;;;43.22;22.38;;;;;;;17.86;52.49;93445.78;4976237;28;20072;-90
2023/05/24 06:05:09;;;;;;;26.23;13.18;;;;;;;17.85;52.59;93445.03;4974815;28;20038;-91
2023/05/24 06:07:36;;;;;;;26.85;11.25;;;;;;;17.76;52.98;93445.31;4990083;28;20441;-90
2023/05/24 06:10:05;;;;;;;25.67;10.15;;;;;;;17.90;52.93;93446.25;4975314;28;20045;-88
2023/05/24 06:12:30;;;;;;;21.83;9.82;;;;;;;17.81;52.82;93448.03;4975745;28;20042;-89
2023/05/24 06:14:56;;;;;;;18.35;8.73;;;;;;;17.93;52.41;93453.44;5007603;28;20137;-90
2023/05/24 06:17:23;;;;;;;15.38;8.30;;;;;;;17.93;52.31;93451.47;4977711;28;20045;-91
2023/05/24 06:19:50;;;;;;;15.32;8.23;;;;;;;17.98;52.32;93442.47;5009276;28;20061;-90
2023/05/24 06:22:16;;;;;;;17.38;7.45;;;;;;;17.88;52.86;93438.56;4996425;28;20038;-89
2023/05/24 06:24:42;;;;;;;43.75;9.75;;;;;;;18.00;52.56;93439.97;5009375;28;20291;-88
2023/05/24 06:27:08;;;;;;;16.77;7.18;;;;;;;18.01;52.37;93446.91;4993101;28;20268;-88
2023/05/24 06:29:33;;;;;;;20.23;9.48;;;;;;;17.91;52.57;93445.00;4993327;28;20184;-89
2023/05/24 06:31:58;;;;;;;48.85;22.00;;;;;;;18.11;52.48;93445.38;4969213;28;20081;-88
2023/05/24 06:34:24;;;;;;;53.40;23.15;;;;;;;18.06;52.30;93450.88;5006045;28;20053;-87
2023/05/24 06:36:51;;;;;;;50.20;25.05;;;;;;;18.08;52.01;93451.84;4990658;28;20037;-88
2023/05/24 06:39:17;;;;;;;69.72;31.98;;;;;;;17.96;52.04;93455.19;4986317;28;20090;-88
2023/05/24 06:41:43;;;;;;;64.18;31.30;;;;;;;18.08;51.97;93449.13;4976962;28;20033;-91
2023/05/24 06:44:09;;;;;;;71.57;32.90;;;;;;;18.18;52.11;93457.78;4976073;28;20048;-91
2023/05/24 06:46:34;;;;;;;65.63;32.15;;;;;;;18.21;52.16;93459.47;4984722;28;20567;-91
2023/05/24 06:49:00;;;;;;;58.55;32.92;;;;;;;18.22;51.63;93454.75;4976143;28;20515;-92
2023/05/24 06:51:25;;;;;;;59.20;28.77;;;;;;;18.12;52.31;93457.81;4974539;28;20037;-91
2023/05/24 06:53:57;;;;;;;73.03;29.67;;;;;;;18.24;51.92;93463.94;5011173;28;20049;-89
2023/05/24 06:56:23;;;;;;;61.05;29.75;;;;;;;18.32;52.15;93466.88;4996456;28;20144;-91
2023/05/24 06:58:51;;;;;;;49.20;27.20;;;;;;;18.27;52.15;93464.91;4999733;28;20072;-91
2023/05/24 07:01:18;;;;;;;61.25;25.33;;;;;;;18.26;52.10;93460.69;4975895;28;20048;-91
2023/05/24 07:03:44;;;;;;;40.20;21.65;;;;;;;18.26;52.37;93463.41;4991672;28;20046;-90
2023/05/24 07:06:32;;;;;;;52.95;29.58;;;;;;;18.19;52.10;93461.97;4974127;28;20046;-92
2023/05/24 07:08:57;;;;;;;51.42;25.58;;;;;;;18.26;51.94;93472.38;5006052;28;20040;-90
2023/05/24 07:11:23;;;;;;;48.20;22.50;;;;;;;18.14;52.52;93471.72;4971441;28;20050;-92
2023/05/24 07:13:49;;;;;;;43.05;22.63;;;;;;;18.29;52.17;93474.09;4976207;28;20384;-92
2023/05/24 07:16:14;;;;;;;42.25;21.45;;;;;;;18.18;52.35;93473.44;4991506;28;20077;-90
2023/05/24 07:18:40;;;;;;;88.78;29.00;;;;;;;18.33;52.29;93473.84;5009512;28;20034;-87
2023/05/24 07:21:06;;;;;;;50.47;22.85;;;;;;;18.29;51.90;93474.09;4988608;28;20042;-93
2023/05/24 07:23:32;;;;;;;65.18;25.80;;;;;;;18.13;52.36;93469.50;4976283;28;20061;-89
2023/05/24 07:25:58;;;;;;;66.00;27.95;;;;;;;18.29;52.31;93474.09;4969848;28;20042;-90
2023/05/24 07:28:23;;;;;;;64.45;24.83;;;;;;;18.25;52.66;93470.88;4978763;28;20064;-92
2023/05/24 07:30:49;;;;;;;118.80;47.45;;;;;;;18.31;52.36;93463.38;4973147;28;20752;-92
2023/05/24 07:33:16;;;;;;;79.15;35.45;;;;;;;18.17;52.72;93463.75;4974065;28;20400;-92
2023/05/24 07:35:42;;;;;;;73.63;31.50;;;;;;;18.26;52.52;93474.38;5007188;28;20051;-94
2023/05/24 07:38:07;;;;;;;65.63;26.33;;;;;;;18.19;53.05;93469.47;4994086;28;20042;-93
2023/05/24 07:40:33;;;;;;;75.72;25.33;;;;;;;18.21;52.84;93464.19;4979586;28;20073;-92
2023/05/24 07:42:59;;;;;;;52.00;20.45;;;;;;;18.29;52.85;93463.16;4991819;28;20034;-93
2023/05/24 07:45:25;;;;;;;44.90;20.08;;;;;;;18.25;52.94;93478.34;4976978;28;20062;-90
2023/05/24 07:47:51;;;;;;;34.63;15.75;;;;;;;18.29;52.70;93460.41;4975858;28;20056;-90
2023/05/24 07:50:17;;;;;;;35.47;15.93;;;;;;;18.28;52.91;93464.41;4993755;28;20449;-93
2023/05/24 07:52:42;;;;;;;33.72;14.63;;;;;;;18.15;53.26;93465.00;4995042;28;20054;-91
2023/05/24 07:55:10;;;;;;;35.72;13.65;;;;;;;18.24;52.88;93468.66;4978990;28;20033;-91
2023/05/24 07:57:36;;;;;;;39.92;13.60;;;;;;;18.30;52.74;93461.91;4992689;28;20033;-90
2023/05/24 08:00:13;;;;;;;27.88;13.05;;;;;;;18.31;52.50;93460.66;4962259;28;20049;-90
2023/05/24 08:02:42;;;;;;;43.28;15.88;;;;;;;18.35;52.88;93452.16;4965128;28;20046;-90
2023/05/24 08:05:11;;;;;;;49.83;21.08;;;;;;;18.34;53.00;93461.63;4998030;28;20046;-93
2023/05/24 08:07:37;;;;;;;51.40;21.80;;;;;;;18.40;52.60;93463.06;4985600;28;20060;-90
2023/05/24 08:10:03;;;;;;;108.93;46.00;;;;;;;18.45;52.54;93461.53;5006376;28;20046;-92
2023/05/24 08:12:29;;;;;;;98.25;48.40;;;;;;;18.43;52.70;93459.31;4985765;28;20097;-92
2023/05/24 08:14:55;;;;;;;123.20;59.00;;;;;;;18.38;53.15;93454.63;4988600;28;20047;-91
2023/05/24 08:17:21;;;;;;;142.32;67.28;;;;;;;18.37;52.90;93460.63;4981521;28;20066;-92
2023/05/24 08:19:47;;;;;;;138.73;50.47;;;;;;;18.39;53.84;93453.38;4987495;28;20038;-92
2023/05/24 08:22:13;;;;;;;99.93;43.45;;;;;;;18.44;53.32;93455.31;4994764;28;20041;-90
2023/05/24 08:24:39;;;;;;;108.80;49.28;;;;;;;18.47;53.39;93461.78;4975725;28;20030;-90
2023/05/24 08:27:05;;;;;;;110.22;48.35;;;;;;;18.51;53.53;93459.50;5010722;28;20061;-91
2023/05/24 08:29:31;;;;;;;50.35;23.88;;;;;;;18.50;53.00;93447.06;4980557;28;20034;-90
2023/05/24 08:31:57;;;;;;;127.57;68.55;;;;;;;18.40;52.92;93454.13;4985791;28;20042;-90
2023/05/24 08:34:22;;;;;;;105.90;51.45;;;;;;;18.38;53.09;93445.69;5016587;28;20057;-89
2023/05/24 08:36:49;;;;;;;94.75;49.85;;;;;;;18.39;53.10;93453.38;4999409;28;20061;-92
2023/05/24 08:39:15;;;;;;;77.05;40.55;;;;;;;18.41;53.31;93464.53;4982855;28;20046;-92
2023/05/24 08:41:52;;;;;;;97.22;47.80;;;;;;;18.44;52.96;93463.53;4978985;28;20552;-92
2023/05/24 08:44:19;;;;;;;90.43;48.17;;;;;;;18.44;53.45;93457.31;5002437;28;20069;-92
2023/05/24 08:46:45;;;;;;;108.03;56.78;;;;;;;18.47;53.31;93462.50;5003880;28;20038;-92
2023/05/24 08:49:12;;;;;;;88.45;43.97;;;;;;;18.55;53.33;93462.72;4999069;28;20056;-93
2023/05/24 08:51:38;;;;;;;91.10;42.33;;;;;;;18.40;53.40;93468.53;4980345;28;20040;-92
2023/05/24 08:54:04;;;;;;;67.65;36.22;;;;;;;18.40;53.68;93481.50;4978882;28;20863;-93
2023/05/24 08:56:33;;;;;;;85.68;36.70;;;;;;;18.44;53.13;93474.47;4981117;28;20069;-91
2023/05/24 08:59:00;;;;;;;86.20;35.30;;;;;;;18.46;53.45;93477.44;4982148;28;20042;-93
2023/05/24 09:01:26;;;;;;;69.78;33.42;;;;;;;18.49;53.44;93470.22;4972009;28;20038;-92
2023/05/24 09:03:52;;;;;;;80.10;32.53;;;;;;;18.34;53.50;93486.25;4977929;28;20540;-92
2023/05/24 09:06:18;;;;;;;68.68;28.80;;;;;;;18.43;53.14;93491.41;4961827;28;20046;-91
2023/05/24 09:08:44;;;;;;;56.67;26.85;;;;;;;18.36;53.42;93478.28;4987587;28;20049;-89
2023/05/24 09:11:12;;;;;;;57.78;26.13;;;;;;;18.41;52.93;93480.97;4974783;28;20041;-93
2023/05/24 09:13:37;;;;;;;86.60;35.05;;;;;;;18.33;53.37;93491.00;4993577;28;20037;-92
2023/05/24 09:16:04;;;;;;;85.15;44.20;;;;;;;18.35;53.25;93490.47;4973064;28;20424;-90
2023/05/24 09:18:30;;;;;;;89.60;48.97;;;;;;;18.34;53.44;93495.22;5009983;28;20133;-89
2023/05/24 09:20:58;;;;;;;91.88;45.75;;;;;;;18.34;53.59;93491.72;5011994;28;20037;-89
2023/05/24 09:23:25;;;;;;;88.60;46.55;;;;;;;18.36;53.27;93497.44;4975300;28;20045;-90
2023/05/24 09:25:55;;;;;;;111.65;48.65;;;;;;;18.43;53.32;93496.88;4994746;28;20056;-91
2023/05/24 09:28:27;;;;;;;83.40;41.83;;;;;;;18.43;53.34;93500.34;5011503;28;20040;-92
2023/05/24 09:31:01;;;;;;;77.10;35.38;;;;;;;18.29;53.37;93495.25;4999670;28;20038;-91
2023/05/24 09:33:32;;;;;;;46.88;22.70;;;;;;;18.22;53.25;93506.72;5005861;28;20057;-92
2023/05/24 09:35:58;;;;;;;42.30;20.70;;;;;;;18.26;53.29;93499.00;4971565;28;20046;-92
2023/05/24 09:38:24;;;;;;;45.42;20.20;;;;;;;18.15;53.26;93488.88;4956211;28;20807;-90
2023/05/24 09:41:03;;;;;;;33.97;17.38;;;;;;;18.09;53.74;93483.44;4977567;28;20100;-89
2023/05/24 09:43:30;;;;;;;25.23;14.60;;;;;;;18.01;53.76;93495.41;4959410;28;20057;-89
2023/05/24 09:45:56;;;;;;;31.25;14.73;;;;;;;18.08;53.01;93497.63;4941004;28;20045;-89
2023/05/24 09:48:22;;;;;;;19.27;12.07;;;;;;;17.99;53.81;93495.16;4953955;28;20077;-88
2023/05/24 09:50:58;;;;;;;21.92;11.32;;;;;;;18.00;53.92;93494.66;4972987;28;20086;-89
2023/05/24 09:53:24;;;;;;;18.83;11.68;;;;;;;18.17;53.79;93493.84;4967497;28;20047;-89
2023/05/24 09:55:49;;;;;;;26.05;14.20;;;;;;;18.03;53.59;93499.13;4969002;28;20101;-89
2023/05/24 09:58:15;;;;;;;23.88;14.85;;;;;;;17.99;53.95;93495.91;4972791;28;20048;-89
2023/05/24 10:00:41;;;;;;;28.73;16.23;;;;;;;18.01;54.15;93498.88;4942760;28;20038;-88
2023/05/24 10:03:07;;;;;;;31.23;15.02;;;;;;;18.15;53.97;93491.63;4966672;28;20046;-87
2023/05/24 10:05:33;;;;;;;33.13;14.02;;;;;;;18.14;53.97;93498.34;4949788;28;20426;-90
2023/05/24 10:07:59;;;;;;;19.15;12.27;;;;;;;18.14;54.05;93501.81;4941866;28;20034;-87
2023/05/24 10:10:28;;;;;;;15.57;10.45;;;;;;;18.04;53.63;93495.16;4961084;28;20480;-89
2023/05/24 10:12:57;;;;;;;15.50;9.95;;;;;;;18.11;54.22;93502.09;4953888;28;20078;-89
2023/05/24 10:15:23;;;;;;;15.23;9.65;;;;;;;18.10;53.76;93498.59;4950770;28;20533;-89
2023/05/24 10:17:51;;;;;;;14.38;8.85;;;;;;;18.22;53.91;93498.50;4978086;28;20058;-88
2023/05/24 10:20:17;;;;;;;14.63;8.10;;;;;;;18.10;54.28;93495.13;4950289;28;20133;-88
2023/05/24 10:22:44;;;;;;;12.95;7.95;;;;;;;18.12;53.99;93492.63;4955010;28;20042;-88
2023/05/24 10:25:15;;;;;;;15.45;8.85;;;;;;;18.08;54.14;93489.41;4967133;28;20137;-88
2023/05/24 10:27:40;;;;;;;;;;;;;;;18.13;53.85;93489.38;4976157;28;20034;-88
2023/05/24 10:30:11;;;;;;;12.73;9.15;;;;;;;18.11;53.75;93494.63;5023154;28;19995;-90
2023/05/24 10:32:37;;;;;;;14.05;8.35;;;;;;;18.17;53.37;93493.84;4998723;28;20058;-88
2023/05/24 10:35:05;;;;;;;13.48;7.78;;;;;;;18.23;53.48;93489.81;4987062;28;20141;-89
2023/05/24 10:37:31;;;;;;;11.30;7.97;;;;;;;18.20;53.35;93498.28;4995025;28;20069;-88
2023/05/24 10:39:57;;;;;;;9.00;6.65;;;;;;;18.20;53.57;93498.28;4962755;28;20050;-90
2023/05/24 10:42:23;;;;;;;8.40;6.90;;;;;;;18.21;53.33;93503.25;4959821;28;20057;-88
2023/05/24 10:44:48;;;;;;;38.42;16.55;;;;;;;18.20;53.19;93499.03;4981976;28;20034;-89
2023/05/24 10:47:14;;;;;;;35.85;18.75;;;;;;;18.34;53.17;93495.22;4987114;28;20046;-87
2023/05/24 10:49:51;;;;;;;34.65;20.20;;;;;;;18.25;53.10;93487.31;4969731;28;20552;-88
2023/05/24 10:52:17;;;;;;;36.70;18.20;;;;;;;18.22;53.07;93496.53;4975108;28;20038;-88
2023/05/24 10:55:04;;;;;;;32.10;17.95;;;;;;;18.28;52.83;93499.97;4962125;28;20180;-87
2023/05/24 10:57:31;;;;;;;97.45;34.55;;;;;;;18.30;52.84;93499.47;4957586;28;20048;-90
2023/05/24 11:00:24;;;;;;;81.15;34.67;;;;;;;18.32;52.91;93499.72;4956374;28;20717;-90
2023/05/24 11:03:08;;;;;;;109.57;52.63;;;;;;;18.45;52.54;93497.84;5009440;28;20042;-87
2023/05/24 11:05:34;;;;;;;135.85;62.08;;;;;;;18.45;52.34;93503.34;4974956;28;20039;-94
2023/05/24 11:08:00;;;;;;;133.85;63.67;;;;;;;18.46;52.46;93496.59;4966127;28;20042;-88
2023/05/24 11:10:35;;;;;;;139.32;61.72;;;;;;;18.47;52.60;93489.16;4992937;28;20033;-89
2023/05/24 11:13:02;;;;;;;100.82;47.58;;;;;;;18.46;52.95;93496.59;4967708;28;20046;-87
2023/05/24 11:15:54;;;;;;;136.40;60.97;;;;;;;18.41;52.93;93497.38;5000411;28;20512;-89
2023/05/24 11:18:23;;;;;;;109.68;55.45;;;;;;;18.53;52.46;93489.09;5008833;28;20050;-88